Time,TemperatureF,DewpointF,PressureIn,WindDirection,WindDirectionDegrees,WindSpeedMPH,WindSpeedGustMPH,Humidity,HourlyPrecipIn,Conditions,Clouds,dailyrainin,SoftwareType,DateUTC
2013-04-06 08:27:00,37.2,25.8,30.32,NNW,346,2.0,4.0,63,0.00,,,0.00,Wunderground v.1.15,2013-04-06 12:27:00,
2013-04-06 08:28:00,37.2,25.8,30.32,NNW,346,2.0,5.0,63,0.00,,,0.00,Wunderground v.1.15,2013-04-06 12:28:00,
2013-04-06 08:29:00,37.2,26.1,30.32,NNW,343,2.0,5.0,64,0.00,,,0.00,Wunderground v.1.15,2013-04-06 12:29:00,
2013-04-06 08:35:00,37.0,25.9,30.33,NNW,335,5.0,8.0,64,0.00,,,0.00,Wunderground v.1.15,2013-04-06 12:35:00,
2013-04-06 08:40:00,37.1,25.7,30.33,NNW,331,5.0,7.0,63,0.00,,,0.00,Wunderground v.1.15,2013-04-06 12:40:00,
2013-04-06 08:45:00,37.3,25.8,30.33,NNW,344,5.0,7.0,63,0.00,,,0.00,Wunderground v.1.15,2013-04-06 12:45:00,
2013-04-06 08:51:00,37.6,26.1,30.33,NNW,347,5.0,6.0,63,0.00,,,0.00,Wunderground v.1.15,2013-04-06 12:51:00,
2013-04-06 08:57:00,37.8,25.9,30.34,North,360,5.0,8.0,62,0.00,,,0.00,Wunderground v.1.15,2013-04-06 12:57:00,
2013-04-06 09:02:00,38.1,26.2,30.34,NNW,345,5.0,6.0,62,0.00,,,0.00,Wunderground v.1.15,2013-04-06 13:02:00,
2013-04-06 09:09:00,38.3,25.6,30.34,NW,326,5.0,7.0,60,0.00,,,0.00,Wunderground v.1.15,2013-04-06 13:09:00,
2013-04-06 09:15:00,38.5,26.2,30.34,NW,321,6.0,9.0,61,0.00,,,0.00,Wunderground v.1.15,2013-04-06 13:15:00,
2013-04-06 09:20:00,38.7,26.4,30.34,North,349,6.0,6.0,61,0.00,,,0.00,Wunderground v.1.15,2013-04-06 13:20:00,
2013-04-06 09:26:00,39.1,26.0,30.34,NNW,340,5.0,6.0,59,0.00,,,0.00,Wunderground v.1.15,2013-04-06 13:26:00,
2013-04-06 09:32:00,39.5,25.1,30.34,NNW,334,5.0,6.0,56,0.00,,,0.00,Wunderground v.1.15,2013-04-06 13:32:00,
2013-04-06 09:37:00,39.8,24.5,30.34,NNW,339,5.0,9.0,54,0.00,,,0.00,Wunderground v.1.15,2013-04-06 13:37:00,
2013-04-06 09:43:00,40.0,25.6,30.33,North,355,4.0,7.0,56,0.00,,,0.00,Wunderground v.1.15,2013-04-06 13:43:00,
2013-04-06 09:49:00,40.4,23.7,30.33,NNW,348,5.0,7.0,51,0.00,,,0.00,Wunderground v.1.15,2013-04-06 13:49:00,
2013-04-06 09:56:00,40.8,24.1,30.33,NNW,329,5.0,8.0,51,0.00,,,0.00,Wunderground v.1.15,2013-04-06 13:56:00,
2013-04-06 10:01:00,41.6,25.3,30.33,North,5,5.0,5.0,52,0.00,,,0.00,Wunderground v.1.15,2013-04-06 14:01:00,
2013-04-06 10:07:00,42.2,24.9,30.33,North,5,4.0,7.0,50,0.00,,,0.00,Wunderground v.1.15,2013-04-06 14:07:00,
2013-04-06 10:12:00,42.0,24.2,30.34,North,5,4.0,4.0,49,0.00,,,0.00,Wunderground v.1.15,2013-04-06 14:12:00,
2013-04-06 10:19:00,42.4,24.1,30.34,North,360,3.0,5.0,48,0.00,,,0.00,Wunderground v.1.15,2013-04-06 14:19:00,
2013-04-06 10:25:00,42.7,24.8,30.33,NNW,337,3.0,8.0,49,0.00,,,0.00,Wunderground v.1.15,2013-04-06 14:25:00,
2013-04-06 10:30:00,42.4,23.6,30.33,NNW,330,3.0,3.0,47,0.00,,,0.00,Wunderground v.1.15,2013-04-06 14:30:00,
2013-04-06 10:36:00,42.8,23.4,30.33,North,355,3.0,9.0,46,0.00,,,0.00,Wunderground v.1.15,2013-04-06 14:36:00,
2013-04-06 10:42:00,43.2,24.3,30.33,North,360,3.0,6.0,47,0.00,,,0.00,Wunderground v.1.15,2013-04-06 14:42:00,
2013-04-06 10:47:00,43.6,24.2,30.33,North,360,2.0,6.0,46,0.00,,,0.00,Wunderground v.1.15,2013-04-06 14:47:00,
2013-04-06 10:54:00,44.3,23.7,30.34,North,11,2.0,7.0,44,0.00,,,0.00,Wunderground v.1.15,2013-04-06 14:54:00,
2013-04-06 10:59:00,44.7,23.5,30.34,NE,37,3.0,7.0,43,0.00,,,0.00,Wunderground v.1.15,2013-04-06 14:59:00,
2013-04-06 11:04:00,44.1,23.0,30.34,NE,37,2.0,3.0,43,0.00,,,0.00,Wunderground v.1.15,2013-04-06 15:04:00,
2013-04-06 11:09:00,44.5,23.4,30.34,NE,37,1.0,3.0,43,0.00,,,0.00,Wunderground v.1.15,2013-04-06 15:09:00,
2013-04-06 11:15:00,45.0,25.4,30.34,NE,37,1.0,3.0,46,0.00,,,0.00,Wunderground v.1.15,2013-04-06 15:15:00,
2013-04-06 11:20:00,45.9,26.3,30.33,NE,38,0.0,3.0,46,0.00,,,0.00,Wunderground v.1.15,2013-04-06 15:20:00,
2013-04-06 11:25:00,46.0,24.7,30.33,NE,40,2.0,6.0,43,0.00,,,0.00,Wunderground v.1.15,2013-04-06 15:25:00,
2013-04-06 11:31:00,45.7,25.0,30.33,NE,40,2.0,2.0,44,0.00,,,0.00,Wunderground v.1.15,2013-04-06 15:31:00,
2013-04-06 11:36:00,46.0,24.7,30.33,NE,52,2.0,6.0,43,0.00,,,0.00,Wunderground v.1.15,2013-04-06 15:36:00,
2013-04-06 11:42:00,46.2,24.3,30.33,ENE,72,3.0,7.0,42,0.00,,,0.00,Wunderground v.1.15,2013-04-06 15:42:00,
2013-04-06 11:49:00,46.3,24.4,30.33,ENE,71,4.0,7.0,42,0.00,,,0.00,Wunderground v.1.15,2013-04-06 15:49:00,
2013-04-06 11:55:00,46.6,23.5,30.33,ENE,71,2.0,4.0,40,0.00,,,0.00,Wunderground v.1.15,2013-04-06 15:55:00,
2013-04-06 12:00:00,46.1,23.7,30.33,ENE,73,1.0,4.0,41,0.00,,,0.00,Wunderground v.1.15,2013-04-06 16:00:00,
2013-04-06 12:06:00,46.6,23.5,30.33,ENE,70,2.0,7.0,40,0.00,,,0.00,Wunderground v.1.15,2013-04-06 16:06:00,
2013-04-06 12:12:00,47.4,24.9,30.33,ENE,69,3.0,3.0,41,0.00,,,0.00,Wunderground v.1.15,2013-04-06 16:12:00,
2013-04-06 12:20:00,47.8,23.4,30.33,ENE,61,2.0,4.0,38,0.00,,,0.00,Wunderground v.1.15,2013-04-06 16:20:00,
2013-04-06 12:26:00,47.8,24.0,30.33,ENE,61,2.0,4.0,39,0.00,,,0.00,Wunderground v.1.15,2013-04-06 16:26:00,
2013-04-06 12:32:00,48.5,24.6,30.32,NE,49,2.0,6.0,39,0.00,,,0.00,Wunderground v.1.15,2013-04-06 16:32:00,
2013-04-06 12:37:00,48.8,25.5,30.33,NE,49,2.0,6.0,40,0.00,,,0.00,Wunderground v.1.15,2013-04-06 16:37:00,
2013-04-06 12:44:00,48.8,26.7,30.33,NE,46,2.0,5.0,42,0.00,,,0.00,Wunderground v.1.15,2013-04-06 16:44:00,
2013-04-06 12:50:00,49.2,26.5,30.32,East,80,3.0,5.0,41,0.00,,,0.00,Wunderground v.1.15,2013-04-06 16:50:00,
2013-04-06 12:55:00,49.0,26.3,30.32,East,88,3.0,7.0,41,0.00,,,0.00,Wunderground v.1.15,2013-04-06 16:55:00,
2013-04-06 13:00:00,49.4,27.2,30.32,East,80,3.0,3.0,42,0.00,,,0.00,Wunderground v.1.15,2013-04-06 17:00:00,
2013-04-06 13:05:00,50.0,26.0,30.32,ENE,59,3.0,8.0,39,0.00,,,0.00,Wunderground v.1.15,2013-04-06 17:05:00,
2013-04-06 13:11:00,49.7,26.3,30.32,East,82,4.0,4.0,40,0.00,,,0.00,Wunderground v.1.15,2013-04-06 17:11:00,
2013-04-06 13:16:00,49.8,23.9,30.32,East,82,3.0,7.0,36,0.00,,,0.00,Wunderground v.1.15,2013-04-06 17:16:00,
2013-04-06 13:21:00,50.1,25.5,30.32,East,86,2.0,2.0,38,0.00,,,0.00,Wunderground v.1.15,2013-04-06 17:21:00,
2013-04-06 13:27:00,50.2,28.0,30.32,East,92,2.0,6.0,42,0.00,,,0.00,Wunderground v.1.15,2013-04-06 17:27:00,
2013-04-06 13:34:00,50.2,26.2,30.32,East,87,3.0,7.0,39,0.00,,,0.00,Wunderground v.1.15,2013-04-06 17:34:00,
2013-04-06 13:39:00,50.4,25.7,30.32,East,87,3.0,7.0,38,0.00,,,0.00,Wunderground v.1.15,2013-04-06 17:39:00,
2013-04-06 13:44:00,50.6,25.9,30.31,East,80,3.0,6.0,38,0.00,,,0.00,Wunderground v.1.15,2013-04-06 17:44:00,
2013-04-06 13:49:00,51.0,25.6,30.31,East,82,2.0,6.0,37,0.00,,,0.00,Wunderground v.1.15,2013-04-06 17:49:00,
2013-04-06 13:55:00,50.7,24.0,30.31,East,91,3.0,5.0,35,0.00,,,0.00,Wunderground v.1.15,2013-04-06 17:55:00,
2013-04-06 14:01:00,50.9,24.2,30.31,East,91,1.0,1.0,35,0.00,,,0.00,Wunderground v.1.15,2013-04-06 18:01:00,
2013-04-06 14:06:00,51.2,23.0,30.30,SE,128,1.0,4.0,33,0.00,,,0.00,Wunderground v.1.15,2013-04-06 18:06:00,
2013-04-06 14:12:00,51.6,24.8,30.30,SE,136,2.0,2.0,35,0.00,,,0.00,Wunderground v.1.15,2013-04-06 18:12:00,
2013-04-06 14:19:00,52.2,24.6,30.29,SSW,200,2.0,4.0,34,0.00,,,0.00,Wunderground v.1.15,2013-04-06 18:19:00,
2013-04-06 14:25:00,52.6,24.3,30.29,SW,225,3.0,6.0,33,0.00,,,0.00,Wunderground v.1.15,2013-04-06 18:25:00,
2013-04-06 14:30:00,52.7,24.4,30.29,SW,217,2.0,5.0,33,0.00,,,0.00,Wunderground v.1.15,2013-04-06 18:30:00,
2013-04-06 14:35:00,52.4,24.1,30.29,SW,226,3.0,5.0,33,0.00,,,0.00,Wunderground v.1.15,2013-04-06 18:35:00,
2013-04-06 14:41:00,52.8,26.6,30.28,SSE,168,3.0,5.0,36,0.00,,,0.00,Wunderground v.1.15,2013-04-06 18:41:00,
2013-04-06 14:46:00,52.8,25.2,30.28,SSE,168,1.0,5.0,34,0.00,,,0.00,Wunderground v.1.15,2013-04-06 18:46:00,
2013-04-06 14:52:00,53.7,27.4,30.28,South,179,1.0,3.0,36,0.00,,,0.00,Wunderground v.1.15,2013-04-06 18:52:00,
2013-04-06 14:59:00,53.9,27.5,30.27,SW,230,4.0,8.0,36,0.00,,,0.00,Wunderground v.1.15,2013-04-06 18:59:00,
2013-04-06 15:04:00,54.3,26.5,30.27,ESE,123,4.0,6.0,34,0.00,,,0.00,Wunderground v.1.15,2013-04-06 19:04:00,
2013-04-06 15:09:00,54.3,26.5,30.27,ESE,122,3.0,8.0,34,0.00,,,0.00,Wunderground v.1.15,2013-04-06 19:09:00,
2013-04-06 15:15:00,54.5,26.0,30.26,SSE,147,3.0,3.0,33,0.00,,,0.00,Wunderground v.1.15,2013-04-06 19:15:00,
2013-04-06 15:20:00,55.1,30.6,30.26,SSW,194,2.0,3.0,39,0.00,,,0.00,Wunderground v.1.15,2013-04-06 19:20:00,
2013-04-06 15:26:00,54.9,28.4,30.26,SE,132,2.0,3.0,36,0.00,,,0.00,Wunderground v.1.15,2013-04-06 19:26:00,
2013-04-06 15:31:00,54.9,29.7,30.25,East,91,2.0,7.0,38,0.00,,,0.00,Wunderground v.1.15,2013-04-06 19:31:00,
2013-04-06 15:36:00,54.8,29.7,30.25,SE,126,4.0,7.0,38,0.00,,,0.00,Wunderground v.1.15,2013-04-06 19:36:00,
2013-04-06 15:42:00,54.8,29.0,30.25,SE,132,3.0,5.0,37,0.00,,,0.00,Wunderground v.1.15,2013-04-06 19:42:00,
2013-04-06 15:49:00,54.4,29.3,30.25,ESE,118,4.0,7.0,38,0.00,,,0.00,Wunderground v.1.15,2013-04-06 19:49:00,
2013-04-06 15:54:00,54.4,29.3,30.24,ESE,117,5.0,5.0,38,0.00,,,0.00,Wunderground v.1.15,2013-04-06 19:54:00,
2013-04-06 15:59:00,54.5,28.7,30.24,ESE,117,3.0,5.0,37,0.00,,,0.00,Wunderground v.1.15,2013-04-06 19:59:00,
2013-04-06 16:05:00,54.8,28.3,30.24,ESE,115,3.0,8.0,36,0.00,,,0.00,Wunderground v.1.15,2013-04-06 20:05:00,
2013-04-06 16:10:00,54.6,27.5,30.24,East,95,4.0,4.0,35,0.00,,,0.00,Wunderground v.1.15,2013-04-06 20:10:00,
2013-04-06 16:16:00,55.0,27.8,30.24,East,92,4.0,9.0,35,0.00,,,0.00,Wunderground v.1.15,2013-04-06 20:16:00,
2013-04-06 16:21:00,55.1,29.9,30.24,ESE,121,5.0,10.0,38,0.00,,,0.00,Wunderground v.1.15,2013-04-06 20:21:00,
2013-04-06 16:27:00,55.0,27.8,30.23,SE,142,5.0,10.0,35,0.00,,,0.00,Wunderground v.1.15,2013-04-06 20:27:00,
2013-04-06 16:34:00,55.6,28.4,30.23,South,174,2.0,4.0,35,0.00,,,0.00,Wunderground v.1.15,2013-04-06 20:34:00,
2013-04-06 16:40:00,55.8,29.2,30.23,ESE,120,3.0,9.0,36,0.00,,,0.00,Wunderground v.1.15,2013-04-06 20:40:00,
2013-04-06 16:45:00,55.4,26.7,30.23,SE,129,5.0,9.0,33,0.00,,,0.00,Wunderground v.1.15,2013-04-06 20:45:00,
2013-04-06 16:51:00,55.4,27.5,30.23,ESE,122,4.0,5.0,34,0.00,,,0.00,Wunderground v.1.15,2013-04-06 20:51:00,
2013-04-06 16:56:00,55.5,29.0,30.23,SE,126,4.0,5.0,36,0.00,,,0.00,Wunderground v.1.15,2013-04-06 20:56:00,
2013-04-06 17:01:00,55.7,30.5,30.23,ESE,106,3.0,7.0,38,0.00,,,0.00,Wunderground v.1.15,2013-04-06 21:01:00,
2013-04-06 17:07:00,55.8,27.8,30.23,ESE,104,3.0,7.0,34,0.00,,,0.00,Wunderground v.1.15,2013-04-06 21:07:00,
2013-04-06 17:13:00,55.9,27.2,30.23,East,86,3.0,8.0,33,0.00,,,0.00,Wunderground v.1.15,2013-04-06 21:13:00,
2013-04-06 17:19:00,56.0,28.7,30.22,East,82,2.0,8.0,35,0.00,,,0.00,Wunderground v.1.15,2013-04-06 21:19:00,
2013-04-06 17:25:00,56.3,26.0,30.23,East,80,2.0,5.0,31,0.00,,,0.00,Wunderground v.1.15,2013-04-06 21:25:00,
2013-04-06 17:31:00,56.4,28.3,30.23,ESE,114,4.0,4.0,34,0.00,,,0.00,Wunderground v.1.15,2013-04-06 21:31:00,
2013-04-06 17:37:00,56.3,26.8,30.23,East,96,4.0,5.0,32,0.00,,,0.00,Wunderground v.1.15,2013-04-06 21:37:00,
2013-04-06 17:44:00,56.1,26.6,30.23,East,84,2.0,6.0,32,0.00,,,0.00,Wunderground v.1.15,2013-04-06 21:44:00,
2013-04-06 17:49:00,56.1,25.8,30.23,East,82,4.0,6.0,31,0.00,,,0.00,Wunderground v.1.15,2013-04-06 21:49:00,
2013-04-06 17:55:00,56.0,28.0,30.23,ESE,108,5.0,9.0,34,0.00,,,0.00,Wunderground v.1.15,2013-04-06 21:55:00,
2013-04-06 18:00:00,56.1,27.4,30.22,East,84,4.0,10.0,33,0.00,,,0.00,Wunderground v.1.15,2013-04-06 22:00:00,
2013-04-06 18:06:00,55.8,26.3,30.22,ESE,115,4.0,10.0,32,0.00,,,0.00,Wunderground v.1.15,2013-04-06 22:06:00,
2013-04-06 18:12:00,55.4,26.0,30.23,East,97,5.0,7.0,32,0.00,,,0.00,Wunderground v.1.15,2013-04-06 22:12:00,
2013-04-06 18:17:00,55.2,27.3,30.22,ESE,104,4.0,7.0,34,0.00,,,0.00,Wunderground v.1.15,2013-04-06 22:17:00,
2013-04-06 18:22:00,55.0,26.4,30.22,ESE,111,3.0,4.0,33,0.00,,,0.00,Wunderground v.1.15,2013-04-06 22:22:00,
2013-04-06 18:28:00,54.7,26.8,30.22,ESE,112,4.0,7.0,34,0.00,,,0.00,Wunderground v.1.15,2013-04-06 22:28:00,
2013-04-06 18:34:00,54.5,26.7,30.22,ESE,115,3.0,4.0,34,0.00,,,0.00,Wunderground v.1.15,2013-04-06 22:34:00,
2013-04-06 18:39:00,54.5,27.4,30.23,ESE,113,3.0,7.0,35,0.00,,,0.00,Wunderground v.1.15,2013-04-06 22:39:00,
2013-04-06 18:45:00,54.2,27.1,30.22,ESE,121,3.0,8.0,35,0.00,,,0.00,Wunderground v.1.15,2013-04-06 22:45:00,
2013-04-06 18:50:00,53.8,26.8,30.22,ESE,109,4.0,4.0,35,0.00,,,0.00,Wunderground v.1.15,2013-04-06 22:50:00,
2013-04-06 18:55:00,53.3,27.0,30.23,SE,128,5.0,7.0,36,0.00,,,0.00,Wunderground v.1.15,2013-04-06 22:55:00,
2013-04-06 19:00:00,53.0,26.7,30.23,ESE,123,4.0,4.0,36,0.00,,,0.00,Wunderground v.1.15,2013-04-06 23:00:00,
2013-04-06 19:05:00,52.8,25.9,30.23,SE,131,4.0,8.0,35,0.00,,,0.00,Wunderground v.1.15,2013-04-06 23:05:00,
2013-04-06 19:10:00,52.5,25.6,30.23,SE,128,5.0,5.0,35,0.00,,,0.00,Wunderground v.1.15,2013-04-06 23:10:00,
2013-04-06 19:15:00,52.2,26.0,30.22,SE,132,3.0,5.0,36,0.00,,,0.00,Wunderground v.1.15,2013-04-06 23:15:00,
2013-04-06 19:21:00,51.8,25.0,30.23,ESE,121,4.0,4.0,35,0.00,,,0.00,Wunderground v.1.15,2013-04-06 23:21:00,
2013-04-06 19:26:00,51.5,25.4,30.23,SE,125,3.0,4.0,36,0.00,,,0.00,Wunderground v.1.15,2013-04-06 23:26:00,
2013-04-06 19:32:00,51.1,24.4,30.23,ESE,122,3.0,5.0,35,0.00,,,0.00,Wunderground v.1.15,2013-04-06 23:32:00,
2013-04-06 19:39:00,50.8,24.8,30.23,ESE,122,2.0,5.0,36,0.00,,,0.00,Wunderground v.1.15,2013-04-06 23:39:00,
2013-04-06 19:44:00,50.4,24.4,30.22,ESE,122,1.0,3.0,36,0.00,,,0.00,Wunderground v.1.15,2013-04-06 23:44:00,
2013-04-06 19:49:00,50.2,24.2,30.22,SE,128,2.0,3.0,36,0.00,,,0.00,Wunderground v.1.15,2013-04-06 23:49:00,
2013-04-06 19:54:00,50.1,24.2,30.23,SE,128,2.0,3.0,36,0.00,,,0.00,Wunderground v.1.15,2013-04-06 23:54:00,
2013-04-06 19:59:00,50.0,24.7,30.23,SE,128,1.0,3.0,37,0.00,,,0.00,Wunderground v.1.15,2013-04-06 23:59:00,
2013-04-06 20:05:00,49.6,24.4,30.23,SE,128,1.0,2.0,37,0.00,,,0.00,Wunderground v.1.15,2013-04-07 00:05:00,
2013-04-06 20:10:00,49.4,24.2,30.23,SE,128,0.0,1.0,37,0.00,,,0.00,Wunderground v.1.15,2013-04-07 00:10:00,
2013-04-06 20:15:00,49.2,24.6,30.22,SE,128,1.0,2.0,38,0.00,,,0.00,Wunderground v.1.15,2013-04-07 00:15:00,
2013-04-06 20:22:00,49.1,24.6,30.23,SE,128,1.0,2.0,38,0.00,,,0.00,Wunderground v.1.15,2013-04-07 00:22:00,
2013-04-06 20:29:00,49.0,24.5,30.23,SE,128,1.0,3.0,38,0.00,,,0.00,Wunderground v.1.15,2013-04-07 00:29:00,
2013-04-06 20:34:00,48.9,25.0,30.23,SE,128,1.0,2.0,39,0.00,,,0.00,Wunderground v.1.15,2013-04-07 00:34:00,
2013-04-06 20:40:00,48.6,25.3,30.23,SE,128,0.0,0.0,40,0.00,,,0.00,Wunderground v.1.15,2013-04-07 00:40:00,
2013-04-06 20:45:00,48.4,25.2,30.23,SE,128,0.0,0.0,40,0.00,,,0.00,Wunderground v.1.15,2013-04-07 00:45:00,
2013-04-06 20:51:00,48.3,25.7,30.23,SE,128,0.0,1.0,41,0.00,,,0.00,Wunderground v.1.15,2013-04-07 00:51:00,
2013-04-06 20:56:00,48.2,25.6,30.23,SE,128,0.0,1.0,41,0.00,,,0.00,Wunderground v.1.15,2013-04-07 00:56:00,
2013-04-06 21:02:00,48.1,26.1,30.23,SE,128,0.0,0.0,42,0.00,,,0.00,Wunderground v.1.15,2013-04-07 01:02:00,
2013-04-06 21:09:00,48.0,26.0,30.23,SE,128,0.0,3.0,42,0.00,,,0.00,Wunderground v.1.15,2013-04-07 01:09:00,
2013-04-06 21:14:00,47.9,26.5,30.23,SE,128,0.0,0.0,43,0.00,,,0.00,Wunderground v.1.15,2013-04-07 01:14:00,
2013-04-06 21:20:00,47.8,26.4,30.23,SE,128,0.0,0.0,43,0.00,,,0.00,Wunderground v.1.15,2013-04-07 01:20:00,
2013-04-06 21:25:00,47.8,26.4,30.24,SE,128,0.0,0.0,43,0.00,,,0.00,Wunderground v.1.15,2013-04-07 01:25:00,
2013-04-06 21:31:00,47.7,26.8,30.23,SE,128,0.0,0.0,44,0.00,,,0.00,Wunderground v.1.15,2013-04-07 01:31:00,
2013-04-06 21:37:00,47.6,26.7,30.23,SE,128,0.0,0.0,44,0.00,,,0.00,Wunderground v.1.15,2013-04-07 01:37:00,